Machelen, Belgium
Current Conditions -  °F | °C
As of 5:20 AM on Wednesday 22 Oct 2014 (Local Time) from EBBR Reporting Station
Broken Clouds Broken Clouds  
Wind Chill: 43°   Ceiling: 4200
Heat Index: 48°   Visibility: 6mi
Dew Point: 39°   Wind: 12mph
Humidity: 71%   Direction: 290°WNW
Pressure: 30.03"   Gusts: NA
Location:  50.91°N, 4.44°E
Report Text: EBBR 220320Z 29010KT 270V330 9999 SCT030 BKN042 09/04 Q1017 NOSIG
Loading
Personal Weather Stations






























Interactive Weather Map New forecast layout! Learn more

10-Day Weather Forecast

Advertisements
Track Severe Weather on mobile